createdAt,value
2017-09-02T00:00:28.468Z,1011.56
2017-09-02T00:01:28.455Z,1011.55
2017-09-02T00:02:28.454Z,1011.58
2017-09-02T00:03:28.424Z,1011.56
2017-09-02T00:04:28.460Z,1011.58
2017-09-02T00:05:28.395Z,1011.62
2017-09-02T00:06:28.383Z,1011.58
2017-09-02T00:07:28.369Z,1011.59
2017-09-02T00:08:28.354Z,1011.56
2017-09-02T00:09:28.342Z,1011.57
2017-09-02T00:10:28.325Z,1011.55
2017-09-02T00:11:28.314Z,1011.54
2017-09-02T00:12:28.299Z,1011.55
2017-09-02T00:13:28.285Z,1011.54
2017-09-02T00:14:28.269Z,1011.59
2017-09-02T00:15:28.256Z,1011.53
2017-09-02T00:16:28.243Z,1011.55
2017-09-02T00:17:28.254Z,1011.59
2017-09-02T00:18:28.214Z,1011.57
2017-09-02T00:19:28.202Z,1011.53
2017-09-02T00:20:28.188Z,1011.54
2017-09-02T00:21:28.173Z,1011.57
2017-09-02T00:22:28.165Z,1011.55
2017-09-02T00:23:28.146Z,1011.57
2017-09-02T00:24:28.133Z,1011.54
2017-09-02T00:25:28.119Z,1011.58
2017-09-02T00:26:28.105Z,1011.56
2017-09-02T00:27:28.089Z,1011.62
2017-09-02T00:28:28.076Z,1011.61
2017-09-02T00:29:28.063Z,1011.6
2017-09-02T00:30:28.048Z,1011.59
2017-09-02T00:31:28.039Z,1011.59
2017-09-02T00:32:28.021Z,1011.62
2017-09-02T00:33:28.007Z,1011.6
2017-09-02T00:34:27.994Z,1011.61
2017-09-02T00:35:27.979Z,1011.62
2017-09-02T00:36:27.964Z,1011.6
2017-09-02T00:37:27.949Z,1011.6
2017-09-02T00:38:27.940Z,1011.58
2017-09-02T00:39:27.922Z,1011.61
2017-09-02T00:40:27.907Z,1011.62
2017-09-02T00:41:27.896Z,1011.61
2017-09-02T00:42:27.881Z,1011.63
2017-09-02T00:43:27.868Z,1011.61
2017-09-02T00:44:27.853Z,1011.6
2017-09-02T00:45:27.839Z,1011.59
2017-09-02T00:46:27.825Z,1011.6
2017-09-02T00:47:27.811Z,1011.57
2017-09-02T00:48:27.798Z,1011.56
2017-09-02T00:49:27.786Z,1011.57
2017-09-02T00:50:27.769Z,1011.59
2017-09-02T00:51:27.758Z,1011.56
2017-09-02T00:52:27.746Z,1011.54
2017-09-02T00:53:27.730Z,1011.55
2017-09-02T00:54:27.714Z,1011.54
2017-09-02T00:55:27.702Z,1011.52
2017-09-02T00:56:27.689Z,1011.52
2017-09-02T00:57:27.692Z,1011.5
2017-09-02T00:58:27.660Z,1011.48
2017-09-02T00:59:27.648Z,1011.49
2017-09-02T01:00:27.633Z,1011.47
2017-09-02T01:01:27.620Z,1011.5
2017-09-02T01:02:27.606Z,1011.51
2017-09-02T01:03:27.594Z,1011.49
2017-09-02T01:04:27.579Z,1011.54
2017-09-02T01:05:27.566Z,1011.52
2017-09-02T01:06:27.552Z,1011.53
2017-09-02T01:07:27.540Z,1011.53
2017-09-02T01:08:27.524Z,1011.56
2017-09-02T01:09:27.511Z,1011.53
2017-09-02T01:10:27.496Z,1011.54
2017-09-02T01:11:27.484Z,1011.57
2017-09-02T01:12:27.469Z,1011.55
2017-09-02T01:13:27.457Z,1011.57
2017-09-02T01:14:27.442Z,1011.57
2017-09-02T01:15:27.427Z,1011.55
2017-09-02T01:16:27.413Z,1011.55
2017-09-02T01:17:27.402Z,1011.54
2017-09-02T01:18:27.393Z,1011.5
2017-09-02T01:19:27.380Z,1011.55
2017-09-02T01:20:27.361Z,1011.55
2017-09-02T01:21:27.349Z,1011.55
2017-09-02T01:22:27.339Z,1011.58
2017-09-02T01:23:27.318Z,1011.54
2017-09-02T01:24:27.306Z,1011.54
2017-09-02T01:25:27.292Z,1011.56
2017-09-02T01:26:27.276Z,1011.54
2017-09-02T01:27:27.263Z,1011.55
2017-09-02T01:28:27.248Z,1011.53
2017-09-02T01:29:27.234Z,1011.54
2017-09-02T01:30:27.221Z,1011.54
2017-09-02T01:31:27.208Z,1011.53
2017-09-02T01:32:27.193Z,1011.54
2017-09-02T01:33:27.181Z,1011.54
2017-09-02T01:34:27.166Z,1011.58
2017-09-02T01:35:27.153Z,1011.6
2017-09-02T01:36:27.138Z,1011.61
2017-09-02T01:37:27.124Z,1011.6
2017-09-02T01:38:27.114Z,1011.63
2017-09-02T01:39:27.099Z,1011.65
2017-09-02T01:40:27.087Z,1011.65
2017-09-02T01:41:27.072Z,1011.64
2017-09-02T01:42:27.055Z,1011.63
2017-09-02T01:43:27.043Z,1011.66
2017-09-02T01:44:27.028Z,1011.62
2017-09-02T01:45:27.013Z,1011.6
2017-09-02T01:46:27.001Z,1011.62
2017-09-02T01:47:26.987Z,1011.63
2017-09-02T01:48:26.973Z,1011.65
2017-09-02T01:49:26.958Z,1011.64
2017-09-02T01:50:26.945Z,1011.65
2017-09-02T01:51:26.933Z,1011.62
2017-09-02T01:52:26.918Z,1011.65
2017-09-02T01:53:26.904Z,1011.62
2017-09-02T01:54:26.891Z,1011.61
2017-09-02T01:55:26.876Z,1011.61
2017-09-02T01:56:26.862Z,1011.62
2017-09-02T01:57:26.849Z,1011.61
2017-09-02T01:58:26.835Z,1011.61
2017-09-02T01:59:26.821Z,1011.59
2017-09-02T02:00:26.809Z,1011.59
2017-09-02T02:01:26.793Z,1011.57
2017-09-02T02:02:26.780Z,1011.57
2017-09-02T02:03:26.765Z,1011.56
2017-09-02T02:04:26.752Z,1011.54
2017-09-02T02:05:26.738Z,1011.53
2017-09-02T02:06:26.726Z,1011.55
2017-09-02T02:07:26.710Z,1011.59
2017-09-02T02:08:26.699Z,1011.51
2017-09-02T02:09:26.682Z,1011.52
2017-09-02T02:10:26.871Z,1011.54
2017-09-02T02:11:26.655Z,1011.49
2017-09-02T02:12:26.644Z,1011.47
2017-09-02T02:13:26.633Z,1011.49
2017-09-02T02:14:26.640Z,1011.5
2017-09-02T02:15:26.599Z,1011.5
2017-09-02T02:16:26.587Z,1011.53
2017-09-02T02:17:26.574Z,1011.51
2017-09-02T02:18:26.560Z,1011.5
2017-09-02T02:19:26.546Z,1011.5
2017-09-02T02:20:26.531Z,1011.54
2017-09-02T02:21:26.519Z,1011.54
2017-09-02T02:22:26.505Z,1011.52
2017-09-02T02:23:26.490Z,1011.52
2017-09-02T02:24:26.478Z,1011.54
2017-09-02T02:25:26.466Z,1011.5
2017-09-02T02:26:26.450Z,1011.5
2017-09-02T02:27:26.436Z,1011.52
2017-09-02T02:28:26.421Z,1011.5
2017-09-02T02:29:26.410Z,1011.48
2017-09-02T02:30:26.396Z,1011.48
2017-09-02T02:31:26.381Z,1011.48
2017-09-02T02:32:26.370Z,1011.51
2017-09-02T02:33:26.353Z,1011.48
2017-09-02T02:34:26.341Z,1011.5
2017-09-02T02:35:26.332Z,1011.46
2017-09-02T02:36:26.314Z,1011.43
2017-09-02T02:37:26.306Z,1011.42
2017-09-02T02:38:26.286Z,1011.4
2017-09-02T02:39:26.275Z,1011.4
2017-09-02T02:40:26.256Z,1011.41
2017-09-02T02:41:26.243Z,1011.43
2017-09-02T02:42:26.232Z,1011.42
2017-09-02T02:43:26.219Z,1011.37
2017-09-02T02:44:26.204Z,1011.37
2017-09-02T02:45:26.190Z,1011.34
2017-09-02T02:46:26.176Z,1011.37
2017-09-02T02:47:26.162Z,1011.36
2017-09-02T02:48:26.151Z,1011.37
2017-09-02T02:49:26.137Z,1011.37
2017-09-02T02:50:26.122Z,1011.32
2017-09-02T02:51:26.158Z,1011.36
2017-09-02T02:52:26.096Z,1011.34
2017-09-02T02:53:26.081Z,1011.36
2017-09-02T02:54:26.066Z,1011.34
2017-09-02T02:55:26.053Z,1011.33
2017-09-02T02:56:26.041Z,1011.31
2017-09-02T02:57:26.026Z,1011.33
2017-09-02T02:58:26.014Z,1011.28
2017-09-02T02:59:25.999Z,1011.27
2017-09-02T03:00:25.985Z,1011.31
2017-09-02T03:01:25.973Z,1011.27
2017-09-02T03:02:25.957Z,1011.28
2017-09-02T03:03:25.944Z,1011.27
2017-09-02T03:04:25.930Z,1011.26
2017-09-02T03:05:25.918Z,1011.25
2017-09-02T03:06:25.903Z,1011.25
2017-09-02T03:07:25.890Z,1011.22
2017-09-02T03:08:25.879Z,1011.22
2017-09-02T03:09:25.862Z,1011.22
2017-09-02T03:10:25.849Z,1011.22
2017-09-02T03:11:25.833Z,1011.25
2017-09-02T03:12:25.820Z,1011.22
2017-09-02T03:13:25.806Z,1011.21
2017-09-02T03:14:25.800Z,1011.21
2017-09-02T03:15:25.779Z,1011.19
2017-09-02T03:16:25.766Z,1011.19
2017-09-02T03:17:25.753Z,1011.23
2017-09-02T03:18:25.740Z,1011.22
2017-09-02T03:19:25.725Z,1011.21
2017-09-02T03:20:25.711Z,1011.2
2017-09-02T03:21:25.696Z,1011.21
2017-09-02T03:22:25.683Z,1011.16
2017-09-02T03:23:25.670Z,1011.19
2017-09-02T03:24:25.656Z,1011.2
2017-09-02T03:25:25.642Z,1011.2
2017-09-02T03:26:25.629Z,1011.21
2017-09-02T03:27:25.614Z,1011.16
2017-09-02T03:28:25.603Z,1011.22
2017-09-02T03:29:25.589Z,1011.21
2017-09-02T03:30:25.575Z,1011.18
2017-09-02T03:31:25.561Z,1011.2
2017-09-02T03:32:25.545Z,1011.23
2017-09-02T03:33:25.533Z,1011.22
2017-09-02T03:34:25.520Z,1011.22
2017-09-02T03:35:25.505Z,1011.24
2017-09-02T03:36:25.490Z,1011.21
2017-09-02T03:37:25.479Z,1011.22
2017-09-02T03:38:25.463Z,1011.23
2017-09-02T03:39:25.450Z,1011.23
2017-09-02T03:40:25.437Z,1011.21
2017-09-02T03:41:25.424Z,1011.18
2017-09-02T03:42:25.412Z,1011.2
2017-09-02T03:43:25.393Z,1011.14
2017-09-02T03:44:25.380Z,1011.18
2017-09-02T03:45:25.368Z,1011.16
2017-09-02T03:46:25.351Z,1011.17
2017-09-02T03:47:25.339Z,1011.21
2017-09-02T03:48:25.326Z,1011.13
2017-09-02T03:49:25.313Z,1011.16
2017-09-02T03:50:25.296Z,1011.13
2017-09-02T03:51:25.283Z,1011.15
2017-09-02T03:52:25.269Z,1011.16
2017-09-02T03:53:25.255Z,1011.13
2017-09-02T03:54:25.239Z,1011.15
2017-09-02T03:55:25.226Z,1011.11
2017-09-02T03:56:25.213Z,1011.13
2017-09-02T03:57:25.199Z,1011.12
2017-09-02T03:58:25.184Z,1011.11
2017-09-02T03:59:25.172Z,1011.15
2017-09-02T04:00:25.155Z,1011.14
2017-09-02T04:01:25.141Z,1011.17
2017-09-02T04:02:25.127Z,1011.15
2017-09-02T04:03:25.114Z,1011.16
2017-09-02T04:04:25.099Z,1011.14
2017-09-02T04:05:25.086Z,1011.11
2017-09-02T04:06:25.071Z,1011.13
2017-09-02T04:07:25.062Z,1011.15
2017-09-02T04:08:25.045Z,1011.17
2017-09-02T04:09:25.030Z,1011.14
2017-09-02T04:10:25.219Z,1011.14
2017-09-02T04:11:25.001Z,1011.16
2017-09-02T04:12:24.988Z,1011.18
2017-09-02T04:13:24.974Z,1011.14
2017-09-02T04:14:24.960Z,1011.16
2017-09-02T04:15:24.951Z,1011.15
2017-09-02T04:16:24.933Z,1011.11
2017-09-02T04:17:24.918Z,1011.17
2017-09-02T04:18:24.905Z,1011.14
2017-09-02T04:19:24.891Z,1011.14
2017-09-02T04:20:24.879Z,1011.16
2017-09-02T04:21:24.864Z,1011.17
2017-09-02T04:22:24.852Z,1011.15
2017-09-02T04:23:24.834Z,1011.17
2017-09-02T04:24:24.823Z,1011.21
2017-09-02T04:25:24.807Z,1011.19
2017-09-02T04:26:24.791Z,1011.18
2017-09-02T04:27:24.788Z,1011.21
2017-09-02T04:28:24.763Z,1011.2
2017-09-02T04:29:24.753Z,1011.2
2017-09-02T04:30:24.737Z,1011.23
2017-09-02T04:31:24.730Z,1011.25
2017-09-02T04:32:24.710Z,1011.22
2017-09-02T04:33:24.694Z,1011.25
2017-09-02T04:34:24.688Z,1011.28
2017-09-02T04:35:24.680Z,1011.28
2017-09-02T04:36:24.654Z,1011.3
2017-09-02T04:37:24.644Z,1011.25
2017-09-02T04:38:24.629Z,1011.27
2017-09-02T04:39:24.612Z,1011.26
2017-09-02T04:40:24.598Z,1011.28
2017-09-02T04:41:24.582Z,1011.26
2017-09-02T04:42:24.570Z,1011.24
2017-09-02T04:43:24.559Z,1011.25
2017-09-02T04:44:24.540Z,1011.24
2017-09-02T04:45:24.528Z,1011.26
2017-09-02T04:46:24.512Z,1011.25
2017-09-02T04:47:24.499Z,1011.28
2017-09-02T04:48:24.483Z,1011.27
2017-09-02T04:49:24.472Z,1011.27
2017-09-02T04:50:24.456Z,1011.3
2017-09-02T04:51:24.442Z,1011.26
2017-09-02T04:52:24.428Z,1011.28
2017-09-02T04:53:24.412Z,1011.29
2017-09-02T04:54:24.399Z,1011.33
2017-09-02T04:55:24.386Z,1011.35
2017-09-02T04:56:24.374Z,1011.36
2017-09-02T04:57:24.360Z,1011.37
2017-09-02T04:58:24.348Z,1011.35
2017-09-02T04:59:24.330Z,1011.37
2017-09-02T05:00:24.313Z,1011.34
2017-09-02T05:01:24.302Z,1011.36
2017-09-02T05:02:24.290Z,1011.34
2017-09-02T05:03:24.275Z,1011.33
2017-09-02T05:04:24.262Z,1011.37
2017-09-02T05:05:24.248Z,1011.39
2017-09-02T05:06:24.232Z,1011.37
2017-09-02T05:07:24.219Z,1011.33
2017-09-02T05:08:24.210Z,1011.33
2017-09-02T05:09:24.190Z,1011.36
2017-09-02T05:10:24.176Z,1011.36
2017-09-02T05:11:24.166Z,1011.42
2017-09-02T05:12:24.153Z,1011.4
2017-09-02T05:13:24.135Z,1011.4
2017-09-02T05:14:24.125Z,1011.39
2017-09-02T05:15:24.106Z,1011.37
2017-09-02T05:16:24.094Z,1011.4
2017-09-02T05:17:24.078Z,1011.4
2017-09-02T05:18:24.065Z,1011.38
2017-09-02T05:19:24.049Z,1011.38
2017-09-02T05:20:24.037Z,1011.42
2017-09-02T05:21:24.022Z,1011.4
2017-09-02T05:22:24.014Z,1011.37
2017-09-02T05:23:23.994Z,1011.35
2017-09-02T05:24:23.981Z,1011.37
2017-09-02T05:25:23.966Z,1011.37
2017-09-02T05:26:23.954Z,1011.36
2017-09-02T05:27:23.939Z,1011.34
2017-09-02T05:28:23.923Z,1011.31
2017-09-02T05:29:23.910Z,1011.34
2017-09-02T05:30:23.896Z,1011.34
2017-09-02T05:31:23.884Z,1011.35
2017-09-02T05:32:23.869Z,1011.34
2017-09-02T05:33:23.883Z,1011.37
2017-09-02T05:34:23.842Z,1011.34
2017-09-02T05:35:23.826Z,1011.38
2017-09-02T05:36:23.816Z,1011.37
2017-09-02T05:37:23.800Z,1011.4
2017-09-02T05:38:23.786Z,1011.38
2017-09-02T05:39:23.774Z,1011.44
2017-09-02T05:40:23.761Z,1011.43
2017-09-02T05:41:23.757Z,1011.43
2017-09-02T05:42:23.735Z,1011.44
2017-09-02T05:43:23.718Z,1011.48
2017-09-02T05:44:23.704Z,1011.45
2017-09-02T05:45:23.690Z,1011.44
2017-09-02T05:46:23.676Z,1011.44
2017-09-02T05:47:23.676Z,1011.44
2017-09-02T05:48:23.649Z,1011.44
2017-09-02T05:49:23.635Z,1011.44
2017-09-02T05:50:23.621Z,1011.45
2017-09-02T05:51:23.608Z,1011.46
2017-09-02T05:52:23.596Z,1011.46
2017-09-02T05:53:23.581Z,1011.43
2017-09-02T05:54:23.570Z,1011.44
2017-09-02T05:55:23.555Z,1011.41
2017-09-02T05:56:23.542Z,1011.41
2017-09-02T05:57:23.525Z,1011.4
2017-09-02T05:58:23.514Z,1011.42
2017-09-02T05:59:23.500Z,1011.4
2017-09-02T06:00:23.487Z,1011.43
2017-09-02T06:01:23.471Z,1011.44
2017-09-02T06:02:23.461Z,1011.43
2017-09-02T06:03:23.445Z,1011.44
2017-09-02T06:04:23.484Z,1011.45
2017-09-02T06:05:23.417Z,1011.45
2017-09-02T06:06:23.407Z,1011.47
2017-09-02T06:07:23.391Z,1011.49
2017-09-02T06:08:23.381Z,1011.51
2017-09-02T06:09:23.364Z,1011.49
2017-09-02T06:10:23.553Z,1011.49
2017-09-02T06:11:23.338Z,1011.51
2017-09-02T06:12:23.323Z,1011.46
2017-09-02T06:13:23.313Z,1011.49
2017-09-02T06:14:23.299Z,1011.52
2017-09-02T06:15:23.284Z,1011.53
2017-09-02T06:16:23.271Z,1011.52
2017-09-02T06:17:23.260Z,1011.52
2017-09-02T06:18:23.245Z,1011.49
2017-09-02T06:19:23.230Z,1011.5
2017-09-02T06:20:23.221Z,1011.55
2017-09-02T06:21:23.204Z,1011.52
2017-09-02T06:22:23.190Z,1011.53
2017-09-02T06:23:23.177Z,1011.54
2017-09-02T06:24:23.164Z,1011.52
2017-09-02T06:25:23.151Z,1011.49
2017-09-02T06:26:23.139Z,1011.52
2017-09-02T06:27:23.126Z,1011.53
2017-09-02T06:28:23.111Z,1011.5
2017-09-02T06:29:23.098Z,1011.53
2017-09-02T06:30:23.085Z,1011.51
2017-09-02T06:31:23.075Z,1011.53
2017-09-02T06:32:23.060Z,1011.53
2017-09-02T06:33:23.046Z,1011.53
2017-09-02T06:34:23.033Z,1011.55
2017-09-02T06:35:23.019Z,1011.54
2017-09-02T06:36:23.008Z,1011.53
2017-09-02T06:37:22.994Z,1011.55
2017-09-02T06:38:22.981Z,1011.52
2017-09-02T06:39:22.968Z,1011.56
2017-09-02T06:40:22.955Z,1011.59
2017-09-02T06:41:22.942Z,1011.58
2017-09-02T06:42:22.929Z,1011.54
2017-09-02T06:43:22.917Z,1011.55
2017-09-02T06:44:22.902Z,1011.58
2017-09-02T06:45:22.888Z,1011.56
2017-09-02T06:46:22.881Z,1011.56
2017-09-02T06:47:22.864Z,1011.58
2017-09-02T06:48:22.852Z,1011.59
2017-09-02T06:49:22.837Z,1011.58
2017-09-02T06:50:22.824Z,1011.58
2017-09-02T06:51:22.813Z,1011.58
2017-09-02T06:52:22.799Z,1011.58
2017-09-02T06:53:22.784Z,1011.58
2017-09-02T06:54:22.773Z,1011.55
2017-09-02T06:55:22.761Z,1011.58
2017-09-02T06:56:22.751Z,1011.61
2017-09-02T06:57:22.735Z,1011.59
2017-09-02T06:58:22.720Z,1011.58
2017-09-02T06:59:22.708Z,1011.62
2017-09-02T07:00:22.697Z,1011.59
2017-09-02T07:01:22.685Z,1011.58
2017-09-02T07:02:22.672Z,1011.57
2017-09-02T07:03:22.659Z,1011.56
2017-09-02T07:04:22.645Z,1011.56
2017-09-02T07:05:22.634Z,1011.55
2017-09-02T07:06:22.618Z,1011.55
2017-09-02T07:07:22.606Z,1011.58
2017-09-02T07:08:22.594Z,1011.57
2017-09-02T07:09:22.580Z,1011.57
2017-09-02T07:10:22.567Z,1011.54
2017-09-02T07:11:22.554Z,1011.61
2017-09-02T07:12:22.545Z,1011.59
2017-09-02T07:13:22.529Z,1011.61
2017-09-02T07:14:22.517Z,1011.6
2017-09-02T07:15:22.505Z,1011.61
2017-09-02T07:16:22.491Z,1011.62
2017-09-02T07:17:22.479Z,1011.63
2017-09-02T07:18:22.466Z,1011.64
2017-09-02T07:19:22.453Z,1011.67
2017-09-02T07:20:22.440Z,1011.65
2017-09-02T07:21:22.428Z,1011.63
2017-09-02T07:22:22.417Z,1011.67
2017-09-02T07:23:22.415Z,1011.69
2017-09-02T07:24:22.391Z,1011.67
2017-09-02T07:25:22.379Z,1011.69
2017-09-02T07:26:22.363Z,1011.68
2017-09-02T07:27:22.351Z,1011.73
2017-09-02T07:28:22.338Z,1011.65
2017-09-02T07:29:22.325Z,1011.65
2017-09-02T07:30:22.314Z,1011.62
2017-09-02T07:31:22.302Z,1011.66
2017-09-02T07:32:22.292Z,1011.65
2017-09-02T07:33:22.276Z,1011.62
2017-09-02T07:34:22.265Z,1011.64
2017-09-02T07:35:22.251Z,1011.66
2017-09-02T07:36:22.238Z,1011.62
2017-09-02T07:37:22.228Z,1011.61
2017-09-02T07:38:22.215Z,1011.6
2017-09-02T07:39:22.202Z,1011.61
2017-09-02T07:40:22.190Z,1011.59
2017-09-02T07:41:22.227Z,1011.65
2017-09-02T07:42:22.167Z,1011.65
2017-09-02T07:43:22.152Z,1011.68
2017-09-02T07:44:22.140Z,1011.71
2017-09-02T07:45:22.129Z,1011.66
2017-09-02T07:46:22.116Z,1011.7
2017-09-02T07:47:22.104Z,1011.74
2017-09-02T07:48:22.092Z,1011.74
2017-09-02T07:49:22.080Z,1011.75
2017-09-02T07:50:22.068Z,1011.75
2017-09-02T07:51:22.054Z,1011.78
2017-09-02T07:52:22.044Z,1011.79
2017-09-02T07:53:22.034Z,1011.78
2017-09-02T07:54:22.020Z,1011.75
2017-09-02T07:55:22.009Z,1011.76
2017-09-02T07:56:21.996Z,1011.75
2017-09-02T07:57:21.985Z,1011.79
2017-09-02T07:58:21.971Z,1011.75
2017-09-02T07:59:21.961Z,1011.76
2017-09-02T08:00:21.949Z,1011.78
2017-09-02T08:01:21.940Z,1011.8
2017-09-02T08:02:21.925Z,1011.78
2017-09-02T08:03:21.913Z,1011.81
2017-09-02T08:04:21.905Z,1011.8
2017-09-02T08:05:21.892Z,1011.81
2017-09-02T08:06:21.878Z,1011.84
2017-09-02T08:07:21.865Z,1011.82
2017-09-02T08:08:21.853Z,1011.8
2017-09-02T08:09:21.842Z,1011.84
2017-09-02T08:10:22.034Z,1011.83
2017-09-02T08:11:21.818Z,1011.86
2017-09-02T08:12:21.809Z,1011.9
2017-09-02T08:13:21.796Z,1011.89
2017-09-02T08:14:21.785Z,1011.92
2017-09-02T08:15:21.773Z,1011.94
2017-09-02T08:16:21.761Z,1011.95
2017-09-02T08:17:21.752Z,1011.95
2017-09-02T08:18:21.740Z,1011.89
2017-09-02T08:19:21.735Z,1011.84
2017-09-02T08:20:21.716Z,1011.84
2017-09-02T08:21:21.709Z,1011.86
2017-09-02T08:22:21.699Z,1011.87
2017-09-02T08:23:21.684Z,1011.91
2017-09-02T08:24:21.674Z,1011.86
2017-09-02T08:25:21.662Z,1011.9
2017-09-02T08:26:21.650Z,1011.93
2017-09-02T08:27:21.640Z,1011.85
2017-09-02T08:28:21.630Z,1011.93
2017-09-02T08:29:21.625Z,1011.91
2017-09-02T08:30:21.609Z,1011.93
2017-09-02T08:31:21.597Z,1011.93
2017-09-02T08:32:21.586Z,1011.9
2017-09-02T08:33:21.576Z,1011.94
2017-09-02T08:34:21.565Z,1011.92
2017-09-02T08:35:21.558Z,1011.92
2017-09-02T08:36:21.542Z,1011.92
2017-09-02T08:37:21.532Z,1011.95
2017-09-02T08:38:21.520Z,1011.93
2017-09-02T08:39:21.510Z,1011.95
2017-09-02T08:40:21.500Z,1011.97
2017-09-02T08:41:21.490Z,1011.96
2017-09-02T08:42:21.479Z,1011.98
2017-09-02T08:43:21.471Z,1011.99
2017-09-02T08:44:21.458Z,1011.96
2017-09-02T08:45:21.446Z,1012
2017-09-02T08:46:21.435Z,1012.01
2017-09-02T08:47:21.425Z,1011.98
2017-09-02T08:48:21.415Z,1012
2017-09-02T08:49:21.402Z,1012
2017-09-02T08:50:21.394Z,1011.96
2017-09-02T08:51:21.383Z,1012.02
2017-09-02T08:52:21.377Z,1011.99
2017-09-02T08:53:21.360Z,1012.02
2017-09-02T08:54:21.352Z,1012
2017-09-02T08:55:21.342Z,1012
2017-09-02T08:56:21.329Z,1011.99
2017-09-02T08:57:21.319Z,1011.96
2017-09-02T08:58:21.308Z,1011.97
2017-09-02T08:59:21.299Z,1012.02
2017-09-02T09:00:21.286Z,1011.98
2017-09-02T09:01:21.276Z,1012
2017-09-02T09:02:21.265Z,1012.01
2017-09-02T09:03:21.256Z,1012.03
2017-09-02T09:04:21.244Z,1012
2017-09-02T09:05:21.236Z,1012.01
2017-09-02T09:06:21.225Z,1012.06
2017-09-02T09:07:21.214Z,1012.04
2017-09-02T09:08:21.203Z,1012
2017-09-02T09:09:21.195Z,1011.98
2017-09-02T09:10:21.184Z,1012.03
2017-09-02T09:11:21.172Z,1012
2017-09-02T09:12:21.163Z,1012.07
2017-09-02T09:13:21.151Z,1012.07
2017-09-02T09:14:21.143Z,1012.12
2017-09-02T09:15:21.131Z,1012.05
2017-09-02T09:16:21.121Z,1012.06
2017-09-02T09:17:21.112Z,1012.06
2017-09-02T09:18:21.105Z,1012.04
2017-09-02T09:19:21.092Z,1012.04
2017-09-02T09:20:21.084Z,1011.97
2017-09-02T09:21:21.075Z,1011.92
2017-09-02T09:22:21.065Z,1011.97
2017-09-02T09:23:21.055Z,1011.99
2017-09-02T09:24:21.047Z,1012.01
2017-09-02T09:25:21.038Z,1011.98
2017-09-02T09:26:21.027Z,1011.96
2017-09-02T09:27:21.018Z,1011.97
2017-09-02T09:28:21.010Z,1011.95
2017-09-02T09:29:21.000Z,1011.95
2017-09-02T09:30:20.994Z,1011.93
2017-09-02T09:31:20.983Z,1011.93
2017-09-02T09:32:20.974Z,1011.91
2017-09-02T09:33:20.965Z,1011.94
2017-09-02T09:34:20.954Z,1011.96
2017-09-02T09:35:20.948Z,1011.96
2017-09-02T09:36:20.939Z,1011.94
2017-09-02T09:37:20.928Z,1011.93
2017-09-02T09:38:20.971Z,1011.98
2017-09-02T09:39:20.914Z,1011.98
2017-09-02T09:40:20.902Z,1011.97
2017-09-02T09:41:20.901Z,1011.99
2017-09-02T09:42:20.890Z,1012.02
2017-09-02T09:43:20.878Z,1012
2017-09-02T09:44:20.869Z,1012.01
2017-09-02T09:45:20.860Z,1011.98
2017-09-02T09:46:20.858Z,1011.94
2017-09-02T09:47:20.847Z,1011.95
2017-09-02T09:48:20.840Z,1011.95
2017-09-02T09:49:20.828Z,1011.95
2017-09-02T09:50:20.823Z,1011.95
2017-09-02T09:51:20.813Z,1011.93
2017-09-02T09:52:20.809Z,1011.93
2017-09-02T09:53:20.846Z,1011.94
2017-09-02T09:54:20.788Z,1011.92
2017-09-02T09:55:20.779Z,1011.9
2017-09-02T09:56:20.769Z,1011.93
2017-09-02T09:57:20.761Z,1011.89
2017-09-02T09:58:20.752Z,1011.92
2017-09-02T09:59:20.745Z,1011.91
2017-09-02T10:00:20.734Z,1011.88
2017-09-02T10:01:20.727Z,1011.92
2017-09-02T10:02:20.716Z,1011.91
2017-09-02T10:03:20.757Z,1011.9
2017-09-02T10:04:20.701Z,1011.86
2017-09-02T10:05:20.693Z,1011.9
2017-09-02T10:06:20.682Z,1011.9
2017-09-02T10:07:20.677Z,1011.89
2017-09-02T10:08:20.714Z,1011.88
2017-09-02T10:09:20.660Z,1011.86
2017-09-02T10:10:20.848Z,1011.88
2017-09-02T10:11:20.642Z,1011.9
2017-09-02T10:12:20.630Z,1011.88
2017-09-02T10:13:20.619Z,1011.88
2017-09-02T10:14:20.611Z,1011.88
2017-09-02T10:15:20.607Z,1011.87
2017-09-02T10:16:20.598Z,1011.81
2017-09-02T10:17:20.586Z,1011.8
2017-09-02T10:18:20.578Z,1011.81
2017-09-02T10:19:20.569Z,1011.8
2017-09-02T10:20:20.561Z,1011.78
2017-09-02T10:21:20.552Z,1011.78
2017-09-02T10:22:20.601Z,1011.74
2017-09-02T10:23:20.534Z,1011.74
2017-09-02T10:24:20.532Z,1011.73
2017-09-02T10:25:20.519Z,1011.74
2017-09-02T10:26:20.511Z,1011.73
2017-09-02T10:27:20.503Z,1011.74
2017-09-02T10:28:20.495Z,1011.74
2017-09-02T10:29:20.483Z,1011.72
2017-09-02T10:30:20.474Z,1011.72
2017-09-02T10:31:20.467Z,1011.74
2017-09-02T10:32:20.457Z,1011.76
2017-09-02T10:33:20.449Z,1011.73
2017-09-02T10:34:20.440Z,1011.75
2017-09-02T10:35:20.430Z,1011.71
2017-09-02T10:36:20.426Z,1011.68
2017-09-02T10:37:20.416Z,1011.67
2017-09-02T10:38:20.408Z,1011.62
2017-09-02T10:39:20.402Z,1011.63
2017-09-02T10:40:20.397Z,1011.64
2017-09-02T10:41:20.389Z,1011.65
2017-09-02T10:42:20.378Z,1011.6
2017-09-02T10:43:20.370Z,1011.65
2017-09-02T10:44:20.363Z,1011.61
2017-09-02T10:45:20.355Z,1011.61
2017-09-02T10:46:20.349Z,1011.61
2017-09-02T10:47:20.339Z,1011.61
2017-09-02T10:48:20.336Z,1011.61
2017-09-02T10:49:20.332Z,1011.67
2017-09-02T10:50:20.323Z,1011.65
2017-09-02T10:51:20.316Z,1011.62
2017-09-02T10:52:20.307Z,1011.63
2017-09-02T10:53:20.296Z,1011.46
2017-09-02T10:54:20.290Z,1011.48
2017-09-02T10:55:20.282Z,1011.41
2017-09-02T10:56:20.280Z,1011.36
2017-09-02T10:57:20.278Z,1011.52
2017-09-02T10:58:20.263Z,1011.41
2017-09-02T10:59:20.254Z,1011.44
2017-09-02T11:00:20.250Z,1011.39
2017-09-02T11:01:20.240Z,1011.43
2017-09-02T11:02:20.233Z,1011.41
2017-09-02T11:03:20.231Z,1011.53
2017-09-02T11:04:20.220Z,1011.18
2017-09-02T11:05:20.212Z,1011.48
2017-09-02T11:06:20.205Z,1011.44
2017-09-02T11:07:20.201Z,1011.34
2017-09-02T11:08:20.193Z,1011.55
2017-09-02T11:09:20.186Z,1011.52
2017-09-02T11:10:20.180Z,1011.62
2017-09-02T11:11:20.174Z,1011.64
2017-09-02T11:12:20.170Z,1011.66
2017-09-02T11:13:20.164Z,1011.56
2017-09-02T11:14:20.156Z,1011.58
2017-09-02T11:15:20.154Z,1011.57
2017-09-02T11:16:20.145Z,1011.54
2017-09-02T11:17:20.140Z,1011.58
2017-09-02T11:18:20.136Z,1011.54
2017-09-02T11:19:20.128Z,1011.59
2017-09-02T11:20:20.129Z,1011.54
2017-09-02T11:21:20.119Z,1011.56
2017-09-02T11:22:20.113Z,1011.55
2017-09-02T11:23:20.109Z,1011.6
2017-09-02T11:24:20.101Z,1011.54
2017-09-02T11:25:20.096Z,1011.56
2017-09-02T11:26:20.088Z,1011.55
2017-09-02T11:27:20.081Z,1011.67
2017-09-02T11:28:20.082Z,1011.68
2017-09-02T11:29:20.072Z,1011.64
2017-09-02T11:30:20.069Z,1011.6
2017-09-02T11:31:20.059Z,1011.64
2017-09-02T11:32:20.052Z,1011.6
2017-09-02T11:33:20.048Z,1011.62
2017-09-02T11:34:20.047Z,1011.6
2017-09-02T11:35:20.045Z,1011.66
2017-09-02T11:36:20.043Z,1011.63
2017-09-02T11:37:20.034Z,1011.6
2017-09-02T11:38:20.032Z,1011.68
2017-09-02T11:39:20.029Z,1011.69
2017-09-02T11:40:20.028Z,1011.66
2017-09-02T11:41:20.026Z,1011.66
2017-09-02T11:42:20.028Z,1011.63
2017-09-02T11:43:20.026Z,1011.64
2017-09-02T11:44:20.024Z,1011.72
2017-09-02T11:45:20.024Z,1011.72
2017-09-02T11:46:20.026Z,1011.66
2017-09-02T11:47:20.027Z,1011.68
2017-09-02T11:48:20.026Z,1011.62
2017-09-02T11:49:20.028Z,1011.54
2017-09-02T11:50:20.031Z,1011.56
2017-09-02T11:51:20.055Z,1011.55
2017-09-02T11:52:20.031Z,1011.56
2017-09-02T11:53:20.032Z,1011.54
2017-09-02T11:54:20.035Z,1011.54
2017-09-02T11:55:20.032Z,1011.48
2017-09-02T11:56:20.032Z,1011.5
2017-09-02T11:57:20.036Z,1011.52
2017-09-02T11:58:20.033Z,1011.47
2017-09-02T11:59:20.029Z,1011.47
2017-09-02T12:00:20.078Z,1011.44
2017-09-02T12:01:20.026Z,1011.46
2017-09-02T12:02:20.024Z,1011.47
2017-09-02T12:03:20.022Z,1011.5
2017-09-02T12:04:20.020Z,1011.45
2017-09-02T12:05:20.015Z,1011.57
2017-09-02T12:06:20.014Z,1011.56
2017-09-02T12:07:20.012Z,1011.57
2017-09-02T12:08:20.008Z,1011.51